sensor_id;sensor_type;location;lat;lon;timestamp;pressure;altitude;pressure_sealevel;temperature;humidity
7264;BME280;3673;52.480;13.348;2023-04-15T00:00:17;100149.78;;;14.23;63.01
7264;BME280;3673;52.480;13.348;2023-04-15T00:02:45;100149.84;;;13.86;63.65
7264;BME280;3673;52.480;13.348;2023-04-15T00:05:12;100143.13;;;14.10;63.38
7264;BME280;3673;52.480;13.348;2023-04-15T00:07:39;100141.56;;;14.01;63.85
7264;BME280;3673;52.480;13.348;2023-04-15T00:10:07;100142.69;;;14.26;63.29
7264;BME280;3673;52.480;13.348;2023-04-15T00:12:34;100147.97;;;14.25;63.35
7264;BME280;3673;52.480;13.348;2023-04-15T00:15:01;100133.75;;;14.32;62.77
7264;BME280;3673;52.480;13.348;2023-04-15T00:17:30;100134.59;;;14.35;62.85
7264;BME280;3673;52.480;13.348;2023-04-15T00:19:56;100126.84;;;14.28;62.76
7264;BME280;3673;52.480;13.348;2023-04-15T00:22:24;100137.56;;;13.86;63.46
7264;BME280;3673;52.480;13.348;2023-04-15T00:24:52;100134.00;;;14.23;63.09
7264;BME280;3673;52.480;13.348;2023-04-15T00:27:18;100125.88;;;14.33;62.68
7264;BME280;3673;52.480;13.348;2023-04-15T00:29:45;100129.38;;;14.34;62.57
7264;BME280;3673;52.480;13.348;2023-04-15T00:32:12;100135.47;;;14.34;62.26
7264;BME280;3673;52.480;13.348;2023-04-15T00:34:40;100124.81;;;14.05;62.91
7264;BME280;3673;52.480;13.348;2023-04-15T00:37:08;100124.16;;;14.31;62.30
7264;BME280;3673;52.480;13.348;2023-04-15T00:39:35;100130.00;;;14.43;62.21
7264;BME280;3673;52.480;13.348;2023-04-15T00:42:03;100129.38;;;14.34;62.48
7264;BME280;3673;52.480;13.348;2023-04-15T00:44:31;100127.13;;;14.51;61.71
7264;BME280;3673;52.480;13.348;2023-04-15T00:46:59;100117.03;;;14.36;61.96
7264;BME280;3673;52.480;13.348;2023-04-15T00:49:27;100124.97;;;14.33;62.32
7264;BME280;3673;52.480;13.348;2023-04-15T00:51:55;100122.13;;;14.42;61.85
7264;BME280;3673;52.480;13.348;2023-04-15T00:54:22;100117.09;;;14.31;62.42
7264;BME280;3673;52.480;13.348;2023-04-15T00:56:49;100119.75;;;14.31;62.03
7264;BME280;3673;52.480;13.348;2023-04-15T00:59:16;100119.91;;;14.25;62.39
7264;BME280;3673;52.480;13.348;2023-04-15T01:01:44;100119.03;;;14.25;62.71
7264;BME280;3673;52.480;13.348;2023-04-15T01:04:11;100109.66;;;14.15;62.60
7264;BME280;3673;52.480;13.348;2023-04-15T01:06:38;100119.34;;;14.14;62.67
7264;BME280;3673;52.480;13.348;2023-04-15T01:09:07;100115.69;;;14.20;62.69
7264;BME280;3673;52.480;13.348;2023-04-15T01:11:34;100115.13;;;14.41;61.91
7264;BME280;3673;52.480;13.348;2023-04-15T01:14:02;100112.53;;;14.06;62.64
7264;BME280;3673;52.480;13.348;2023-04-15T01:16:29;100104.97;;;14.27;62.54
7264;BME280;3673;52.480;13.348;2023-04-15T01:18:56;100106.59;;;14.31;62.31
7264;BME280;3673;52.480;13.348;2023-04-15T01:21:23;100102.53;;;14.20;62.57
7264;BME280;3673;52.480;13.348;2023-04-15T01:23:52;100113.06;;;14.18;62.71
7264;BME280;3673;52.480;13.348;2023-04-15T01:26:22;100102.63;;;14.15;62.58
7264;BME280;3673;52.480;13.348;2023-04-15T01:28:49;100110.22;;;14.27;62.29
7264;BME280;3673;52.480;13.348;2023-04-15T01:31:16;100107.59;;;14.27;62.42
7264;BME280;3673;52.480;13.348;2023-04-15T01:33:43;100095.88;;;14.40;62.05
7264;BME280;3673;52.480;13.348;2023-04-15T01:36:12;100103.41;;;14.19;62.22
7264;BME280;3673;52.480;13.348;2023-04-15T01:38:39;100103.25;;;14.25;62.34
7264;BME280;3673;52.480;13.348;2023-04-15T01:41:06;100103.38;;;14.20;62.57
7264;BME280;3673;52.480;13.348;2023-04-15T01:43:35;100102.34;;;14.27;62.17
7264;BME280;3673;52.480;13.348;2023-04-15T01:46:02;100091.38;;;14.10;62.56
7264;BME280;3673;52.480;13.348;2023-04-15T01:48:29;100096.16;;;14.28;62.13
7264;BME280;3673;52.480;13.348;2023-04-15T01:50:55;100105.84;;;14.26;61.90
7264;BME280;3673;52.480;13.348;2023-04-15T01:53:23;100101.66;;;14.19;62.44
7264;BME280;3673;52.480;13.348;2023-04-15T01:55:50;100101.25;;;14.36;62.25
7264;BME280;3673;52.480;13.348;2023-04-15T01:58:17;100101.56;;;14.22;62.56
7264;BME280;3673;52.480;13.348;2023-04-15T02:00:46;100098.16;;;14.19;62.71
7264;BME280;3673;52.480;13.348;2023-04-15T02:03:13;100105.09;;;14.21;62.54
7264;BME280;3673;52.480;13.348;2023-04-15T02:05:40;100085.88;;;14.18;62.52
7264;BME280;3673;52.480;13.348;2023-04-15T02:08:07;100090.16;;;14.23;62.60
7264;BME280;3673;52.480;13.348;2023-04-15T02:10:34;100096.19;;;13.93;63.01
7264;BME280;3673;52.480;13.348;2023-04-15T02:13:01;100090.31;;;14.17;62.74
7264;BME280;3673;52.480;13.348;2023-04-15T02:15:28;100084.38;;;14.09;62.70
7264;BME280;3673;52.480;13.348;2023-04-15T02:17:56;100090.25;;;14.20;62.15
7264;BME280;3673;52.480;13.348;2023-04-15T02:20:25;100092.69;;;14.26;62.22
7264;BME280;3673;52.480;13.348;2023-04-15T02:22:52;100086.25;;;14.38;61.78
7264;BME280;3673;52.480;13.348;2023-04-15T02:25:19;100092.41;;;14.38;61.92
7264;BME280;3673;52.480;13.348;2023-04-15T02:27:46;100083.97;;;14.24;62.24
7264;BME280;3673;52.480;13.348;2023-04-15T02:30:13;100085.47;;;14.34;62.22
7264;BME280;3673;52.480;13.348;2023-04-15T02:32:40;100086.66;;;14.23;62.16
7264;BME280;3673;52.480;13.348;2023-04-15T02:35:10;100078.38;;;14.38;62.06
7264;BME280;3673;52.480;13.348;2023-04-15T02:37:37;100086.34;;;14.35;62.31
7264;BME280;3673;52.480;13.348;2023-04-15T02:40:08;100088.81;;;14.41;61.74
7264;BME280;3673;52.480;13.348;2023-04-15T02:42:37;100089.03;;;14.33;62.27
7264;BME280;3673;52.480;13.348;2023-04-15T02:45:05;100083.84;;;14.29;62.19
7264;BME280;3673;52.480;13.348;2023-04-15T02:47:32;100095.69;;;14.13;62.57
7264;BME280;3673;52.480;13.348;2023-04-15T02:50:02;100085.97;;;14.49;62.02
7264;BME280;3673;52.480;13.348;2023-04-15T02:52:30;100091.84;;;14.24;62.19
7264;BME280;3673;52.480;13.348;2023-04-15T02:54:57;100081.84;;;14.40;61.90
7264;BME280;3673;52.480;13.348;2023-04-15T02:57:25;100086.59;;;14.24;62.31
7264;BME280;3673;52.480;13.348;2023-04-15T02:59:54;100097.13;;;14.24;62.68
7264;BME280;3673;52.480;13.348;2023-04-15T03:02:20;100088.81;;;14.41;62.12
7264;BME280;3673;52.480;13.348;2023-04-15T03:04:47;100095.22;;;14.31;62.20
7264;BME280;3673;52.480;13.348;2023-04-15T03:07:14;100097.50;;;14.44;61.90
7264;BME280;3673;52.480;13.348;2023-04-15T03:09:42;100100.78;;;14.53;61.97
7264;BME280;3673;52.480;13.348;2023-04-15T03:12:09;100092.28;;;14.43;61.97
7264;BME280;3673;52.480;13.348;2023-04-15T03:14:36;100098.53;;;14.39;61.79
7264;BME280;3673;52.480;13.348;2023-04-15T03:17:03;100103.59;;;14.47;61.98
7264;BME280;3673;52.480;13.348;2023-04-15T03:19:30;100098.03;;;14.23;62.47
7264;BME280;3673;52.480;13.348;2023-04-15T03:21:57;100096.47;;;14.50;61.95
7264;BME280;3673;52.480;13.348;2023-04-15T03:24:23;100097.28;;;14.18;62.59
7264;BME280;3673;52.480;13.348;2023-04-15T03:26:52;100102.19;;;14.33;62.45
7264;BME280;3673;52.480;13.348;2023-04-15T03:29:19;100095.97;;;14.37;62.54
7264;BME280;3673;52.480;13.348;2023-04-15T03:31:46;100106.50;;;14.36;61.95
7264;BME280;3673;52.480;13.348;2023-04-15T03:34:13;100103.06;;;14.32;62.47
7264;BME280;3673;52.480;13.348;2023-04-15T03:36:40;100103.16;;;14.28;62.86
7264;BME280;3673;52.480;13.348;2023-04-15T03:39:07;100103.78;;;14.39;62.34
7264;BME280;3673;52.480;13.348;2023-04-15T03:41:34;100103.00;;;14.35;62.66
7264;BME280;3673;52.480;13.348;2023-04-15T03:44:02;100097.78;;;14.32;62.48
7264;BME280;3673;52.480;13.348;2023-04-15T03:46:29;100104.69;;;14.38;61.96
7264;BME280;3673;52.480;13.348;2023-04-15T03:48:55;100100.34;;;14.37;62.33
7264;BME280;3673;52.480;13.348;2023-04-15T03:51:22;100096.41;;;14.53;61.86
7264;BME280;3673;52.480;13.348;2023-04-15T03:53:49;100099.66;;;14.29;62.45
7264;BME280;3673;52.480;13.348;2023-04-15T03:56:16;100105.63;;;14.35;62.31
7264;BME280;3673;52.480;13.348;2023-04-15T03:58:43;100112.78;;;14.30;62.83
7264;BME280;3673;52.480;13.348;2023-04-15T04:01:11;100101.22;;;14.37;62.41
7264;BME280;3673;52.480;13.348;2023-04-15T04:03:38;100100.34;;;14.37;62.32
7264;BME280;3673;52.480;13.348;2023-04-15T04:06:05;100107.22;;;14.42;62.49
7264;BME280;3673;52.480;13.348;2023-04-15T04:08:32;100105.75;;;14.31;62.37
7264;BME280;3673;52.480;13.348;2023-04-15T04:10:59;100112.38;;;14.47;62.45
7264;BME280;3673;52.480;13.348;2023-04-15T04:13:26;100107.00;;;14.50;62.05
7264;BME280;3673;52.480;13.348;2023-04-15T04:15:53;100108.25;;;14.37;62.52
7264;BME280;3673;52.480;13.348;2023-04-15T04:18:21;100104.69;;;14.38;62.51
7264;BME280;3673;52.480;13.348;2023-04-15T04:20:48;100113.06;;;14.54;62.31
7264;BME280;3673;52.480;13.348;2023-04-15T04:23:15;100110.50;;;14.51;62.22
7264;BME280;3673;52.480;13.348;2023-04-15T04:25:42;100115.72;;;14.52;62.20
7264;BME280;3673;52.480;13.348;2023-04-15T04:28:09;100113.59;;;14.65;61.59
7264;BME280;3673;52.480;13.348;2023-04-15T04:30:36;100116.94;;;14.39;62.09
7264;BME280;3673;52.480;13.348;2023-04-15T04:33:03;100111.91;;;14.64;62.08
7264;BME280;3673;52.480;13.348;2023-04-15T04:35:32;100119.13;;;14.56;62.11
7264;BME280;3673;52.480;13.348;2023-04-15T04:38:02;100125.09;;;14.62;62.02
7264;BME280;3673;52.480;13.348;2023-04-15T04:40:29;100109.47;;;14.56;61.84
7264;BME280;3673;52.480;13.348;2023-04-15T04:42:56;100113.66;;;14.63;61.90
7264;BME280;3673;52.480;13.348;2023-04-15T04:45:22;100109.63;;;14.50;62.41
7264;BME280;3673;52.480;13.348;2023-04-15T04:47:49;100115.88;;;14.46;62.43
7264;BME280;3673;52.480;13.348;2023-04-15T04:50:16;100122.47;;;14.62;61.94
7264;BME280;3673;52.480;13.348;2023-04-15T04:52:44;100130.25;;;14.67;61.68
7264;BME280;3673;52.480;13.348;2023-04-15T04:55:11;100123.41;;;14.60;62.03
7264;BME280;3673;52.480;13.348;2023-04-15T04:57:38;100121.38;;;14.71;61.53
7264;BME280;3673;52.480;13.348;2023-04-15T05:00:06;100134.44;;;14.74;61.45
7264;BME280;3673;52.480;13.348;2023-04-15T05:02:34;100131.41;;;14.55;61.78
7264;BME280;3673;52.480;13.348;2023-04-15T05:05:01;100135.78;;;14.58;61.84
7264;BME280;3673;52.480;13.348;2023-04-15T05:07:28;100131.41;;;14.57;61.94
7264;BME280;3673;52.480;13.348;2023-04-15T05:09:56;100136.06;;;14.78;61.60
7264;BME280;3673;52.480;13.348;2023-04-15T05:12:23;100139.13;;;14.63;61.93
7264;BME280;3673;52.480;13.348;2023-04-15T05:14:50;100135.75;;;14.90;61.33
7264;BME280;3673;52.480;13.348;2023-04-15T05:17:16;100139.63;;;14.77;61.44
7264;BME280;3673;52.480;13.348;2023-04-15T05:19:43;100143.81;;;14.84;61.10
7264;BME280;3673;52.480;13.348;2023-04-15T05:22:10;100139.19;;;14.92;61.19
7264;BME280;3673;52.480;13.348;2023-04-15T05:24:37;100137.97;;;14.73;61.54
7264;BME280;3673;52.480;13.348;2023-04-15T05:27:05;100140.13;;;14.89;61.50
7264;BME280;3673;52.480;13.348;2023-04-15T05:29:33;100139.94;;;14.97;60.83
7264;BME280;3673;52.480;13.348;2023-04-15T05:31:59;100147.28;;;15.15;60.53
7264;BME280;3673;52.480;13.348;2023-04-15T05:34:26;100150.00;;;15.12;60.30
7264;BME280;3673;52.480;13.348;2023-04-15T05:36:53;100151.88;;;15.09;60.36
7264;BME280;3673;52.480;13.348;2023-04-15T05:39:20;100154.41;;;15.12;60.42
7264;BME280;3673;52.480;13.348;2023-04-15T05:41:47;100151.84;;;14.78;60.95
7264;BME280;3673;52.480;13.348;2023-04-15T05:44:15;100157.53;;;14.95;61.20
7264;BME280;3673;52.480;13.348;2023-04-15T05:46:42;100155.84;;;14.92;60.51
7264;BME280;3673;52.480;13.348;2023-04-15T05:49:08;100149.31;;;15.06;60.65
7264;BME280;3673;52.480;13.348;2023-04-15T05:51:35;100148.25;;;15.13;60.39
7264;BME280;3673;52.480;13.348;2023-04-15T05:54:02;100147.25;;;15.17;60.04
7264;BME280;3673;52.480;13.348;2023-04-15T05:56:29;100145.78;;;15.07;60.22
7264;BME280;3673;52.480;13.348;2023-04-15T05:58:56;100144.72;;;15.14;60.15
7264;BME280;3673;52.480;13.348;2023-04-15T06:01:24;100146.25;;;15.21;59.96
7264;BME280;3673;52.480;13.348;2023-04-15T06:03:51;100138.53;;;15.44;59.38
7264;BME280;3673;52.480;13.348;2023-04-15T06:06:17;100151.44;;;15.24;59.92
7264;BME280;3673;52.480;13.348;2023-04-15T06:08:45;100143.28;;;15.31;59.50
7264;BME280;3673;52.480;13.348;2023-04-15T06:11:12;100142.84;;;15.46;59.35
7264;BME280;3673;52.480;13.348;2023-04-15T06:13:38;100154.28;;;15.16;59.79
7264;BME280;3673;52.480;13.348;2023-04-15T06:16:06;100152.13;;;15.30;59.22
7264;BME280;3673;52.480;13.348;2023-04-15T06:18:34;100164.16;;;15.39;59.14
7264;BME280;3673;52.480;13.348;2023-04-15T06:21:01;100155.00;;;15.52;59.02
7264;BME280;3673;52.480;13.348;2023-04-15T06:23:28;100152.53;;;15.44;59.01
7264;BME280;3673;52.480;13.348;2023-04-15T06:25:55;100150.19;;;15.65;58.78
7264;BME280;3673;52.480;13.348;2023-04-15T06:28:21;100146.34;;;15.47;58.91
7264;BME280;3673;52.480;13.348;2023-04-15T06:30:48;100149.69;;;15.54;58.93
7264;BME280;3673;52.480;13.348;2023-04-15T06:33:15;100149.59;;;15.57;58.51
7264;BME280;3673;52.480;13.348;2023-04-15T06:35:43;100157.44;;;15.58;58.05
7264;BME280;3673;52.480;13.348;2023-04-15T06:38:10;100160.50;;;15.74;58.28
7264;BME280;3673;52.480;13.348;2023-04-15T06:40:37;100165.47;;;15.83;57.64
7264;BME280;3673;52.480;13.348;2023-04-15T06:43:04;100162.81;;;15.55;58.20
7264;BME280;3673;52.480;13.348;2023-04-15T06:45:30;100171.75;;;15.79;57.61
7264;BME280;3673;52.480;13.348;2023-04-15T06:47:57;100174.03;;;15.89;57.24
7264;BME280;3673;52.480;13.348;2023-04-15T06:50:24;100173.03;;;15.93;56.97
7264;BME280;3673;52.480;13.348;2023-04-15T06:52:53;100177.97;;;15.76;57.54
7264;BME280;3673;52.480;13.348;2023-04-15T06:55:20;100178.41;;;15.90;57.10
7264;BME280;3673;52.480;13.348;2023-04-15T06:57:47;100187.44;;;15.83;57.53
7264;BME280;3673;52.480;13.348;2023-04-15T07:00:14;100197.63;;;15.66;57.26
7264;BME280;3673;52.480;13.348;2023-04-15T07:02:41;100189.69;;;15.68;57.51
7264;BME280;3673;52.480;13.348;2023-04-15T07:05:08;100184.41;;;15.68;57.63
7264;BME280;3673;52.480;13.348;2023-04-15T07:07:34;100188.88;;;15.93;56.83
7264;BME280;3673;52.480;13.348;2023-04-15T07:10:04;100195.41;;;16.08;56.53
7264;BME280;3673;52.480;13.348;2023-04-15T07:12:31;100197.88;;;16.14;56.19
7264;BME280;3673;52.480;13.348;2023-04-15T07:14:57;100202.75;;;16.26;56.27
7264;BME280;3673;52.480;13.348;2023-04-15T07:17:24;100200.41;;;15.91;56.63
7264;BME280;3673;52.480;13.348;2023-04-15T07:19:51;100206.81;;;16.10;56.38
7264;BME280;3673;52.480;13.348;2023-04-15T07:22:18;100210.47;;;16.32;56.22
7264;BME280;3673;52.480;13.348;2023-04-15T07:24:45;100217.81;;;16.23;56.03
7264;BME280;3673;52.480;13.348;2023-04-15T07:27:13;100207.13;;;16.00;56.61
7264;BME280;3673;52.480;13.348;2023-04-15T07:29:40;100219.22;;;16.07;56.26
7264;BME280;3673;52.480;13.348;2023-04-15T07:32:07;100224.66;;;16.02;56.63
7264;BME280;3673;52.480;13.348;2023-04-15T07:34:35;100217.06;;;16.19;56.25
7264;BME280;3673;52.480;13.348;2023-04-15T07:37:02;100218.16;;;16.12;56.42
7264;BME280;3673;52.480;13.348;2023-04-15T07:39:28;100226.19;;;16.09;56.46
7264;BME280;3673;52.480;13.348;2023-04-15T07:41:55;100230.00;;;16.01;56.58
7264;BME280;3673;52.480;13.348;2023-04-15T07:44:25;100228.81;;;16.09;56.45
7264;BME280;3673;52.480;13.348;2023-04-15T07:46:52;100231.53;;;16.08;56.39
7264;BME280;3673;52.480;13.348;2023-04-15T07:49:18;100226.63;;;16.23;56.21
7264;BME280;3673;52.480;13.348;2023-04-15T07:51:45;100223.91;;;16.25;56.55
7264;BME280;3673;52.480;13.348;2023-04-15T07:54:13;100238.47;;;16.10;56.40
7264;BME280;3673;52.480;13.348;2023-04-15T07:56:40;100226.97;;;16.11;56.30
7264;BME280;3673;52.480;13.348;2023-04-15T07:59:07;100227.59;;;16.21;55.77
7264;BME280;3673;52.480;13.348;2023-04-15T08:01:35;100226.25;;;16.08;56.17
7264;BME280;3673;52.480;13.348;2023-04-15T08:04:03;100227.38;;;15.99;56.41
7264;BME280;3673;52.480;13.348;2023-04-15T08:06:30;100228.25;;;16.00;56.62
7264;BME280;3673;52.480;13.348;2023-04-15T08:08:57;100238.31;;;15.87;56.67
7264;BME280;3673;52.480;13.348;2023-04-15T08:11:24;100241.88;;;15.86;56.69
7264;BME280;3673;52.480;13.348;2023-04-15T08:13:52;100239.22;;;15.86;56.44
7264;BME280;3673;52.480;13.348;2023-04-15T08:16:21;100247.09;;;15.87;56.64
7264;BME280;3673;52.480;13.348;2023-04-15T08:18:51;100232.41;;;15.79;57.21
7264;BME280;3673;52.480;13.348;2023-04-15T08:21:19;100239.19;;;15.87;56.70
7264;BME280;3673;52.480;13.348;2023-04-15T08:23:49;100238.78;;;15.72;57.16
7264;BME280;3673;52.480;13.348;2023-04-15T08:26:16;100245.59;;;15.79;57.15
7264;BME280;3673;52.480;13.348;2023-04-15T08:28:45;100244.97;;;15.71;57.31
7264;BME280;3673;52.480;13.348;2023-04-15T08:31:12;100257.69;;;15.86;56.96
7264;BME280;3673;52.480;13.348;2023-04-15T08:33:39;100250.75;;;15.83;56.83
7264;BME280;3673;52.480;13.348;2023-04-15T08:36:08;100249.09;;;15.79;57.17
7264;BME280;3673;52.480;13.348;2023-04-15T08:38:35;100255.47;;;15.72;57.32
7264;BME280;3673;52.480;13.348;2023-04-15T08:41:08;100264.38;;;15.98;56.73
7264;BME280;3673;52.480;13.348;2023-04-15T08:43:45;100261.41;;;15.79;57.31
7264;BME280;3673;52.480;13.348;2023-04-15T08:46:12;100265.44;;;15.63;57.94
7264;BME280;3673;52.480;13.348;2023-04-15T08:48:41;100267.84;;;15.70;58.08
7264;BME280;3673;52.480;13.348;2023-04-15T08:51:10;100268.09;;;15.61;57.84
7264;BME280;3673;52.480;13.348;2023-04-15T08:53:41;100260.44;;;15.83;57.82
7264;BME280;3673;52.480;13.348;2023-04-15T08:56:09;100263.38;;;15.72;57.87
7264;BME280;3673;52.480;13.348;2023-04-15T08:58:37;100259.16;;;15.67;58.03
7264;BME280;3673;52.480;13.348;2023-04-15T09:01:04;100268.25;;;15.57;58.73
7264;BME280;3673;52.480;13.348;2023-04-15T09:03:32;100271.34;;;15.71;58.15
7264;BME280;3673;52.480;13.348;2023-04-15T09:05:58;100261.59;;;15.73;58.11
7264;BME280;3673;52.480;13.348;2023-04-15T09:08:27;100266.06;;;15.71;58.59
7264;BME280;3673;52.480;13.348;2023-04-15T09:10:54;100265.91;;;15.75;58.49
7264;BME280;3673;52.480;13.348;2023-04-15T09:13:20;100275.97;;;15.63;59.07
7264;BME280;3673;52.480;13.348;2023-04-15T09:15:47;100268.03;;;15.64;58.36
7264;BME280;3673;52.480;13.348;2023-04-15T09:18:26;100284.13;;;15.84;58.21
7264;BME280;3673;52.480;13.348;2023-04-15T09:20:54;100283.34;;;15.81;58.40
7264;BME280;3673;52.480;13.348;2023-04-15T09:23:21;100280.81;;;15.45;58.86
7264;BME280;3673;52.480;13.348;2023-04-15T09:25:49;100275.94;;;15.32;59.28
7264;BME280;3673;52.480;13.348;2023-04-15T09:28:24;100276.88;;;15.31;59.21
7264;BME280;3673;52.480;13.348;2023-04-15T09:30:55;100287.41;;;15.62;58.89
7264;BME280;3673;52.480;13.348;2023-04-15T09:33:22;100294.53;;;15.89;58.60
7264;BME280;3673;52.480;13.348;2023-04-15T09:36:00;100287.25;;;15.68;58.44
7264;BME280;3673;52.480;13.348;2023-04-15T09:38:28;100284.88;;;15.59;58.70
7264;BME280;3673;52.480;13.348;2023-04-15T09:40:57;100299.22;;;15.79;58.66
7264;BME280;3673;52.480;13.348;2023-04-15T09:43:36;100294.22;;;15.70;58.96
7264;BME280;3673;52.480;13.348;2023-04-15T09:46:04;100301.88;;;15.78;58.72
7264;BME280;3673;52.480;13.348;2023-04-15T09:48:31;100297.63;;;16.03;57.87
7264;BME280;3673;52.480;13.348;2023-04-15T09:50:59;100302.41;;;15.90;58.12
7264;BME280;3673;52.480;13.348;2023-04-15T09:53:27;100313.16;;;16.12;58.35
7264;BME280;3673;52.480;13.348;2023-04-15T09:55:57;100299.22;;;15.79;58.86
7264;BME280;3673;52.480;13.348;2023-04-15T09:58:26;100312.66;;;16.01;58.42
7264;BME280;3673;52.480;13.348;2023-04-15T10:00:55;100313.22;;;15.81;58.33
7264;BME280;3673;52.480;13.348;2023-04-15T10:03:23;100309.16;;;16.01;58.68
7264;BME280;3673;52.480;13.348;2023-04-15T10:05:54;100320.22;;;15.82;58.78
7264;BME280;3673;52.480;13.348;2023-04-15T10:08:23;100319.81;;;15.96;58.56
7264;BME280;3673;52.480;13.348;2023-04-15T10:10:51;100323.94;;;16.05;58.55
7264;BME280;3673;52.480;13.348;2023-04-15T10:13:23;100320.06;;;16.18;58.16
7264;BME280;3673;52.480;13.348;2023-04-15T10:15:57;100330.50;;;16.48;57.61
7264;BME280;3673;52.480;13.348;2023-04-15T10:18:26;100327.84;;;16.50;57.74
7264;BME280;3673;52.480;13.348;2023-04-15T10:20:54;100335.31;;;16.36;57.99
7264;BME280;3673;52.480;13.348;2023-04-15T10:23:22;100329.94;;;16.39;58.10
7264;BME280;3673;52.480;13.348;2023-04-15T10:25:51;100330.22;;;16.59;56.93
7264;BME280;3673;52.480;13.348;2023-04-15T10:28:20;100334.66;;;16.28;58.25
7264;BME280;3673;52.480;13.348;2023-04-15T10:30:48;100336.22;;;16.35;58.45
7264;BME280;3673;52.480;13.348;2023-04-15T10:33:17;100333.88;;;16.26;58.49
7264;BME280;3673;52.480;13.348;2023-04-15T10:35:46;100327.91;;;16.19;59.20
7264;BME280;3673;52.480;13.348;2023-04-15T10:38:34;100323.59;;;16.17;59.22
7264;BME280;3673;52.480;13.348;2023-04-15T10:41:19;100327.00;;;16.20;58.88
7264;BME280;3673;52.480;13.348;2023-04-15T10:43:52;100330.63;;;16.18;58.74
7264;BME280;3673;52.480;13.348;2023-04-15T10:46:33;100349.69;;;16.27;58.74
7264;BME280;3673;52.480;13.348;2023-04-15T10:49:06;100347.66;;;16.35;59.13
7264;BME280;3673;52.480;13.348;2023-04-15T10:51:38;100339.06;;;16.29;59.47
7264;BME280;3673;52.480;13.348;2023-04-15T10:54:12;100347.72;;;16.34;59.44
7264;BME280;3673;52.480;13.348;2023-04-15T10:56:41;100341.19;;;16.18;59.85
7264;BME280;3673;52.480;13.348;2023-04-15T10:59:10;100340.81;;;16.01;60.32
7264;BME280;3673;52.480;13.348;2023-04-15T11:01:51;100343.75;;;16.19;59.67
7264;BME280;3673;52.480;13.348;2023-04-15T11:04:52;100348.44;;;16.10;60.11
7264;BME280;3673;52.480;13.348;2023-04-15T11:07:43;100350.72;;;16.22;60.09
7264;BME280;3673;52.480;13.348;2023-04-15T11:10:49;100349.47;;;16.33;59.97
7264;BME280;3673;52.480;13.348;2023-04-15T11:13:25;100366.28;;;16.31;60.25
7264;BME280;3673;52.480;13.348;2023-04-15T11:15:59;100359.19;;;16.04;60.36
7264;BME280;3673;52.480;13.348;2023-04-15T11:18:29;100364.19;;;16.13;60.69
7264;BME280;3673;52.480;13.348;2023-04-15T11:21:00;100362.72;;;16.03;60.17
7264;BME280;3673;52.480;13.348;2023-04-15T11:23:31;100366.22;;;16.03;60.52
7264;BME280;3673;52.480;13.348;2023-04-15T11:26:00;100375.63;;;16.13;60.33
7264;BME280;3673;52.480;13.348;2023-04-15T11:28:31;100367.31;;;16.25;60.04
7264;BME280;3673;52.480;13.348;2023-04-15T11:31:06;100372.66;;;16.24;60.16
7264;BME280;3673;52.480;13.348;2023-04-15T11:33:33;100382.13;;;16.31;60.04
7264;BME280;3673;52.480;13.348;2023-04-15T11:36:00;100375.00;;;16.33;59.91
7264;BME280;3673;52.480;13.348;2023-04-15T11:38:28;100387.53;;;16.26;60.00
7264;BME280;3673;52.480;13.348;2023-04-15T11:40:56;100387.53;;;16.26;60.26
7264;BME280;3673;52.480;13.348;2023-04-15T11:43:23;100390.56;;;16.42;60.06
7264;BME280;3673;52.480;13.348;2023-04-15T11:45:52;100394.84;;;16.46;60.46
7264;BME280;3673;52.480;13.348;2023-04-15T11:48:23;100382.97;;;16.31;60.36
7264;BME280;3673;52.480;13.348;2023-04-15T11:50:54;100394.13;;;16.41;60.09
7264;BME280;3673;52.480;13.348;2023-04-15T11:53:22;100393.19;;;16.43;60.31
7264;BME280;3673;52.480;13.348;2023-04-15T11:55:51;100397.72;;;16.38;60.29
7264;BME280;3673;52.480;13.348;2023-04-15T11:58:20;100400.53;;;16.32;60.37
7264;BME280;3673;52.480;13.348;2023-04-15T12:00:50;100405.59;;;16.40;60.05
7264;BME280;3673;52.480;13.348;2023-04-15T12:03:26;100407.50;;;16.35;60.64
7264;BME280;3673;52.480;13.348;2023-04-15T12:06:14;100403.19;;;16.32;60.57
7264;BME280;3673;52.480;13.348;2023-04-15T12:09:03;100408.53;;;16.31;60.91
7264;BME280;3673;52.480;13.348;2023-04-15T12:11:33;100403.75;;;16.14;61.54
7264;BME280;3673;52.480;13.348;2023-04-15T12:14:18;100416.28;;;16.06;61.81
7264;BME280;3673;52.480;13.348;2023-04-15T12:16:48;100410.81;;;16.41;60.52
7264;BME280;3673;52.480;13.348;2023-04-15T12:19:20;100416.16;;;16.11;61.78
7264;BME280;3673;52.480;13.348;2023-04-15T12:21:49;100420.38;;;16.16;61.37
7264;BME280;3673;52.480;13.348;2023-04-15T12:24:20;100426.06;;;16.03;61.61
7264;BME280;3673;52.480;13.348;2023-04-15T12:26:50;100429.69;;;16.29;61.52
7264;BME280;3673;52.480;13.348;2023-04-15T12:29:17;100422.53;;;16.33;61.63
7264;BME280;3673;52.480;13.348;2023-04-15T12:31:49;100430.53;;;16.61;61.35
7264;BME280;3673;52.480;13.348;2023-04-15T12:34:24;100429.66;;;16.60;60.85
7264;BME280;3673;52.480;13.348;2023-04-15T12:36:52;100436.53;;;16.35;60.36
7264;BME280;3673;52.480;13.348;2023-04-15T12:39:22;100427.53;;;16.42;60.00
7264;BME280;3673;52.480;13.348;2023-04-15T12:41:49;100434.38;;;16.49;60.52
7264;BME280;3673;52.480;13.348;2023-04-15T12:44:16;100438.88;;;16.15;61.78
7264;BME280;3673;52.480;13.348;2023-04-15T12:46:42;100437.22;;;16.41;60.94
7264;BME280;3673;52.480;13.348;2023-04-15T12:49:09;100436.53;;;16.35;60.61
7264;BME280;3673;52.480;13.348;2023-04-15T12:51:38;100446.09;;;16.39;61.28
7264;BME280;3673;52.480;13.348;2023-04-15T12:54:05;100439.75;;;16.46;60.79
7264;BME280;3673;52.480;13.348;2023-04-15T12:56:32;100450.69;;;16.32;60.90
7264;BME280;3673;52.480;13.348;2023-04-15T12:58:58;100450.50;;;16.40;61.04
7264;BME280;3673;52.480;13.348;2023-04-15T13:01:25;100452.13;;;16.44;61.26
7264;BME280;3673;52.480;13.348;2023-04-15T13:03:52;100450.72;;;16.62;60.72
7264;BME280;3673;52.480;13.348;2023-04-15T13:06:19;100457.47;;;16.72;60.26